| time (UTC) | temp C | wind direction | speed KPH | gust KPH | rain 1hr cm | rain 24hr cm | rain mn cm | humidity % | barometer mb |
| 20260507181814 | 16 | 271 | 1.6 | 1.6 | 0.00 | 0.03 | 0.03 | 41 | 1006.5 |
| 20260507180813 | 16 | 279 | 3.2 | 4.8 | 0.00 | 0.03 | 0.03 | 38 | 1006.5 |
| 20260507175811 | 15 | 310 | 3.2 | 4.8 | 0.00 | 0.03 | 0.03 | 41 | 1006.9 |
| 20260507174811 | 16 | 246 | 1.6 | 1.6 | 0.00 | 0.03 | 0.03 | 37 | 1006.7 |
| 20260507173811 | 16 | 220 | 3.2 | 4.8 | 0.00 | 0.03 | 0.03 | 36 | 1006.8 |
| 20260507172811 | 15 | 256 | 0.0 | 0.0 | 0.00 | 0.03 | 0.03 | 43 | 1006.6 |
| 20260507171808 | 16 | 303 | 1.6 | 1.6 | 0.00 | 0.03 | 0.03 | 35 | 1006.7 |
| 20260507170808 | 16 | 35 | 3.2 | 3.2 | 0.00 | 0.03 | 0.03 | 38 | 1006.8 |
| 20260507165807 | 15 | 246 | 0.0 | 1.6 | 0.00 | 0.03 | 0.03 | 37 | 1006.9 |
| 20260507164805 | 15 | 93 | 3.2 | 4.8 | 0.00 | 0.03 | 0.03 | 36 | 1007.3 |
| 20260507163805 | 15 | 239 | 4.8 | 9.7 | 0.00 | 0.03 | 0.03 | 42 | 1007.2 |
| 20260507162804 | 15 | 191 | 3.2 | 4.8 | 0.00 | 0.03 | 0.03 | 42 | 1007.3 |
| 20260507161803 | 15 | 340 | 6.4 | 9.7 | 0.00 | 0.03 | 0.03 | 39 | 1007.3 |
| 20260507160801 | 15 | 275 | 6.4 | 6.4 | 0.00 | 0.03 | 0.03 | 40 | 1007.6 |
| 20260507155759 | 15 | 262 | 0.0 | 0.0 | 0.00 | 0.03 | 0.03 | 47 | 1007.5 |
| 20260507154758 | 15 | 284 | 0.0 | 1.6 | 0.00 | 0.03 | 0.03 | 44 | 1007.6 |
| 20260507153758 | 15 | 345 | 3.2 | 6.4 | 0.00 | 0.03 | 0.03 | 50 | 1007.7 |
| 20260507152757 | 14 | 312 | 3.2 | 3.2 | 0.00 | 0.03 | 0.03 | 51 | 1007.7 |
| 20260507151754 | 14 | 307 | 0.0 | 1.6 | 0.00 | 0.03 | 0.03 | 51 | 1007.7 |
| 20260507150754 | 14 | 21 | 1.6 | 1.6 | 0.00 | 0.03 | 0.03 | 46 | 1007.9 |
| 20260507145753 | 13 | 317 | 6.4 | 6.4 | 0.00 | 0.03 | 0.03 | 50 | 1007.9 |
| 20260507144752 | 13 | 217 | 1.6 | 3.2 | 0.00 | 0.03 | 0.03 | 53 | 1008.3 |
| 20260507143752 | 13 | 263 | 3.2 | 3.2 | 0.00 | 0.03 | 0.03 | 55 | 1008.2 |
| 20260507142751 | 12 | 328 | 3.2 | 3.2 | 0.00 | 0.03 | 0.03 | 61 | 1008.0 |
| 20260507141750 | 12 | 202 | 3.2 | 3.2 | 0.00 | 0.03 | 0.03 | 63 | 1007.9 |
| 20260507140749 | 12 | 253 | 0.0 | 1.6 | 0.00 | 0.03 | 0.03 | 68 | 1007.8 |
| 20260507135750 | 12 | 209 | 1.6 | 3.2 | 0.00 | 0.03 | 0.03 | 67 | 1008.2 |
| 20260507134749 | 12 | 245 | 3.2 | 4.8 | 0.00 | 0.03 | 0.03 | 74 | 1007.9 |
| 20260507133747 | 12 | 309 | 1.6 | 3.2 | 0.00 | 0.03 | 0.03 | 74 | 1007.7 |
| 20260507132742 | 12 | 255 | 1.6 | 1.6 | 0.00 | 0.03 | 0.03 | 75 | 1007.8 |
| 20260507131741 | 11 | 294 | 4.8 | 4.8 | 0.00 | 0.03 | 0.03 | 76 | 1008.0 |
| 20260507130740 | 11 | 324 | 1.6 | 3.2 | 0.00 | 0.03 | 0.03 | 78 | 1008.0 |
| 20260507125737 | 11 | 217 | 3.2 | 4.8 | 0.00 | 0.03 | 0.03 | 79 | 1007.9 |
| 20260507124737 | 11 | 234 | 3.2 | 3.2 | 0.00 | 0.03 | 0.03 | 80 | 1007.8 |
| 20260507123732 | 10 | 212 | 3.2 | 4.8 | 0.00 | 0.03 | 0.03 | 79 | 1008.0 |
| 20260507122730 | 10 | 226 | 3.2 | 6.4 | 0.00 | 0.03 | 0.03 | 81 | 1007.9 |
| 20260507121728 | 10 | 327 | 1.6 | 1.6 | 0.00 | 0.03 | 0.03 | 82 | 1007.9 |
| 20260507120726 | 9 | 330 | 3.2 | 6.4 | 0.00 | 0.03 | 0.03 | 82 | 1007.9 |
| 20260507115725 | 8 | 294 | 0.0 | 1.6 | 0.00 | 0.03 | 0.03 | 85 | 1008.1 |
| 20260507114722 | 8 | 305 | 1.6 | 3.2 | 0.00 | 0.03 | 0.03 | 86 | 1008.1 |
| 20260507113718 | 9 | 299 | 1.6 | 1.6 | 0.00 | 0.03 | 0.03 | 86 | 1007.9 |
| 20260507112712 | 8 | 265 | 0.0 | 1.6 | 0.00 | 0.03 | 0.03 | 91 | 1007.6 |
| 20260507111712 | 8 | 284 | 0.0 | 0.0 | 0.00 | 0.03 | 0.03 | 91 | 1007.7 |
| 20260507110710 | 8 | 284 | 0.0 | 0.0 | 0.00 | 0.03 | 0.03 | 93 | 1007.9 |
| 20260507105710 | 8 | 250 | 0.0 | 0.0 | 0.00 | 0.03 | 0.03 | 94 | 1007.7 |
| 20260507104709 | 8 | 280 | 0.0 | 0.0 | 0.00 | 0.03 | 0.03 | 94 | 1007.7 |
| 20260507103708 | 8 | 256 | 0.0 | 0.0 | 0.00 | 0.03 | 0.03 | 94 | 1007.6 |
| 20260507102707 | 8 | 256 | 0.0 | 0.0 | 0.00 | 0.03 | 0.03 | 93 | 1007.5 |
| 20260507101705 | 8 | 275 | 0.0 | 0.0 | 0.00 | 0.03 | 0.03 | 93 | 1007.2 |
| 20260507100704 | 8 | 294 | 1.6 | 1.6 | 0.00 | 0.03 | 0.03 | 93 | 1007.1 |
| 20260507095700 | 8 | 263 | 0.0 | 0.0 | 0.00 | 0.03 | 0.03 | 93 | 1007.1 |
| 20260507094659 | 8 | 290 | 0.0 | 1.6 | 0.00 | 0.03 | 0.03 | 94 | 1006.9 |
| 20260507093659 | 8 | 330 | 1.6 | 3.2 | 0.00 | 0.03 | 0.03 | 94 | 1007.0 |
| 20260507092654 | 8 | 251 | 0.0 | 1.6 | 0.00 | 0.03 | 0.03 | 95 | 1007.1 |
| 20260507091653 | 8 | 279 | 0.0 | 1.6 | 0.00 | 0.03 | 0.03 | 95 | 1007.2 |
| 20260507090651 | 8 | 290 | 0.0 | 0.0 | 0.00 | 0.03 | 0.03 | 95 | 1007.4 |
| 20260507085651 | 8 | 251 | 0.0 | 0.0 | 0.00 | 0.03 | 0.03 | 95 | 1007.6 |
| 20260507084651 | 8 | 270 | 0.0 | 0.0 | 0.00 | 0.03 | 0.03 | 96 | 1007.6 |
| 20260507083650 | 8 | 257 | 0.0 | 0.0 | 0.00 | 0.03 | 0.03 | 96 | 1007.9 |
| 20260507082648 | 8 | 270 | 0.0 | 0.0 | 0.00 | 0.03 | 0.03 | 97 | 1007.3 |
| 20260507081646 | 8 | 272 | 0.0 | 0.0 | 0.00 | 0.03 | 0.03 | 98 | 1007.1 |
| 20260507080645 | 8 | 282 | 0.0 | 1.6 | 0.00 | 0.03 | 0.03 | 98 | 1007.3 |
| 20260507075642 | 8 | 281 | 0.0 | 0.0 | 0.00 | 0.03 | 0.03 | 98 | 1007.2 |
| 20260507074641 | 8 | 269 | 0.0 | 0.0 | 0.00 | 0.03 | 0.03 | 97 | 1007.2 |
| 20260507073641 | 8 | 269 | 0.0 | 0.0 | 0.13 | 0.03 | 0.03 | 96 | 1007.2 |
| 20260507072641 | 8 | 269 | 0.0 | 0.0 | 0.00 | 0.00 | 0.00 | 93 | 1007.2 |
| 20260507071641 | 9 | 311 | 1.6 | 3.2 | 0.00 | 0.00 | 0.00 | 91 | 1007.2 |
| 20260507070640 | 9 | 275 | 0.0 | 1.6 | 0.00 | 0.00 | 0.00 | 91 | 1007.1 |
| 20260507065639 | 9 | 283 | 0.0 | 0.0 | 0.00 | 0.00 | 0.00 | 91 | 1006.7 |
| 20260507064640 | 9 | 296 | 1.6 | 1.6 | 0.00 | 0.00 | 0.00 | 90 | 1006.7 |
| 20260507063636 | 9 | 302 | 1.6 | 3.2 | 0.00 | 0.00 | 0.00 | 91 | 1006.5 |
| 20260507062635 | 9 | 301 | 0.0 | 0.0 | 0.00 | 0.00 | 0.00 | 91 | 1006.5 |
| 20260507061630 | 9 | 300 | 0.0 | 1.6 | 0.00 | 0.00 | 0.00 | 94 | 1006.9 |
| 20260507060626 | 9 | 266 | 1.6 | 1.6 | 0.00 | 0.00 | 0.00 | 93 | 1006.8 |
| 20260507055623 | 10 | 267 | 0.0 | 1.6 | 0.00 | 0.00 | 0.00 | 91 | 1006.8 |
| 20260507054621 | 10 | 296 | 0.0 | 1.6 | 0.00 | 0.00 | 0.00 | 91 | 1006.8 |
| 20260507053616 | 10 | 289 | 0.0 | 0.0 | 0.00 | 0.00 | 0.00 | 93 | 1007.2 |
| 20260507052612 | 10 | 240 | 4.8 | 6.4 | 0.00 | 0.00 | 0.00 | 95 | 1007.1 |
| 20260507051612 | 10 | 291 | 0.0 | 0.0 | 0.00 | 0.00 | 0.00 | 99 | 1007.7 |
| 20260507050611 | 10 | 256 | 0.0 | 0.0 | 0.00 | 0.00 | 0.00 | 98 | 1007.2 |
| 20260507045610 | 10 | 279 | 0.0 | 0.0 | 0.00 | 0.00 | 0.00 | 98 | 1007.5 |
| 20260507044610 | 10 | 279 | 0.0 | 0.0 | 0.00 | 0.00 | 0.00 | 99 | 1007.2 |
| 20260507043609 | 11 | 270 | 0.0 | 0.0 | 0.00 | 0.00 | 0.00 | 99 | 1007.1 |
| 20260507042608 | 11 | 270 | 0.0 | 0.0 | 0.00 | 0.00 | 0.00 | 99 | 1007.4 |
| 20260507041606 | 11 | 270 | 0.0 | 0.0 | 0.00 | 0.00 | 0.00 | 99 | 1006.9 |
| 20260507040606 | 12 | 264 | 0.0 | 0.0 | 0.00 | 0.00 | 0.00 | 99 | 1007.0 |
| 20260507035604 | 12 | 291 | 0.0 | 1.6 | 0.00 | 0.56 | 0.56 | 99 | 1007.1 |
| 20260507034603 | 12 | 290 | 0.0 | 0.0 | 0.00 | 0.56 | 0.56 | 99 | 1007.2 |
| 20260507033559 | 12 | 279 | 0.0 | 0.0 | 0.18 | 0.56 | 0.56 | 99 | 1006.9 |
| 20260507032559 | 13 | 302 | 1.6 | 1.6 | 0.00 | 0.53 | 0.53 | 98 | 1006.9 |
| 20260507031558 | 13 | 280 | 0.0 | 0.0 | 0.00 | 0.53 | 0.53 | 98 | 1006.7 |
| 20260507030557 | 13 | 264 | 0.0 | 0.0 | 0.00 | 0.53 | 0.53 | 98 | 1006.6 |
| 20260507025552 | 13 | 275 | 0.0 | 0.0 | 0.00 | 0.53 | 0.53 | 98 | 1006.4 |
| 20260507024553 | 13 | 298 | 0.0 | 0.0 | 0.00 | 0.53 | 0.53 | 98 | 1006.3 |
| 20260507023550 | 14 | 277 | 0.0 | 0.0 | 0.00 | 0.53 | 0.53 | 98 | 1006.1 |
| 20260507022545 | 15 | 254 | 1.6 | 1.6 | 0.00 | 0.53 | 0.53 | 99 | 1005.9 |
| 20260507021543 | 15 | 158 | 4.8 | 9.7 | 0.00 | 0.53 | 0.53 | 99 | 1006.1 |
| 20260507020537 | 15 | 275 | 0.0 | 0.0 | 0.00 | 0.53 | 0.53 | 99 | 1006.0 |
| 20260507015538 | 15 | 248 | 1.6 | 3.2 | 0.00 | 0.53 | 0.53 | 99 | 1005.8 |
| 20260507014537 | 14 | 243 | 0.0 | 0.0 | 0.00 | 0.53 | 0.53 | 99 | 1005.7 |
| 20260507013535 | 14 | 243 | 1.6 | 3.2 | 0.00 | 0.53 | 0.53 | 99 | 1005.9 |
| 20260507012530 | 14 | 237 | 0.0 | 1.6 | 0.00 | 0.53 | 0.53 | 99 | 1005.4 |
| 20260507011530 | 14 | 245 | 1.6 | 3.2 | 0.00 | 0.53 | 0.53 | 99 | 1005.6 |
| 20260507010526 | 14 | 332 | 3.2 | 4.8 | 0.00 | 0.53 | 0.53 | 99 | 1005.9 |
| 20260507005526 | 14 | 248 | 0.0 | 0.0 | 0.00 | 0.53 | 0.53 | 99 | 1005.8 |
| 20260507004525 | 14 | 240 | 0.0 | 1.6 | 0.00 | 0.53 | 0.53 | 99 | 1005.9 |
| 20260507003524 | 14 | 235 | 3.2 | 3.2 | 0.00 | 0.53 | 0.53 | 99 | 1005.5 |
| 20260507002522 | 14 | 218 | 1.6 | 3.2 | 0.00 | 0.53 | 0.53 | 99 | 1005.7 |
| 20260507001520 | 13 | 208 | 1.6 | 3.2 | 0.00 | 0.53 | 0.53 | 99 | 1005.6 |
| 20260507000520 | 13 | 206 | 1.6 | 1.6 | 0.00 | 0.53 | 0.53 | 99 | 1005.7 |
| 20260506235519 | 13 | 206 | 3.2 | 3.2 | 0.00 | 0.53 | 0.53 | 99 | 1005.6 |
| 20260506234518 | 13 | 206 | 0.0 | 0.0 | 0.00 | 0.53 | 0.53 | 99 | 1005.6 |
| 20260506233518 | 14 | 206 | 0.0 | 1.6 | 0.00 | 0.53 | 0.53 | 99 | 1005.5 |
| 20260506232517 | 14 | 206 | 1.6 | 1.6 | 0.00 | 0.53 | 0.53 | 99 | 1005.4 |
| 20260506231516 | 14 | 205 | 1.6 | 1.6 | 0.00 | 0.53 | 0.53 | 99 | 1005.4 |
| 20260506230515 | 14 | 205 | 0.0 | 1.6 | 0.00 | 0.53 | 0.53 | 99 | 1005.5 |
| 20260506225510 | 14 | 206 | 1.6 | 3.2 | 0.00 | 0.53 | 0.53 | 99 | 1005.4 |
| 20260506224509 | 14 | 205 | 1.6 | 3.2 | 0.43 | 0.53 | 0.53 | 99 | 1005.5 |
| 20260506223507 | 14 | 205 | 3.2 | 3.2 | 0.18 | 0.46 | 0.46 | 99 | 1005.5 |
| 20260506222506 | 14 | 205 | 3.2 | 3.2 | 0.13 | 0.43 | 0.43 | 99 | 1005.7 |
| 20260506221505 | 14 | 206 | 1.6 | 3.2 | 0.13 | 0.43 | 0.43 | 99 | 1005.7 |
| 20260506220503 | 14 | 206 | 1.6 | 1.6 | 0.30 | 0.41 | 0.41 | 99 | 1005.7 |
| 20260506215502 | 14 | 206 | 1.6 | 1.6 | 0.00 | 0.36 | 0.36 | 99 | 1005.7 |
| 20260506214500 | 14 | 207 | 0.0 | 1.6 | 0.18 | 0.36 | 0.36 | 99 | 1005.8 |
| 20260506213455 | 14 | 205 | 3.2 | 3.2 | 0.13 | 0.33 | 0.33 | 99 | 1005.9 |
| 20260506212453 | 14 | 217 | 1.6 | 1.6 | 0.00 | 0.30 | 0.30 | 99 | 1006.0 |
| 20260506211450 | 14 | 218 | 1.6 | 1.6 | 0.00 | 0.30 | 0.30 | 99 | 1005.9 |
| 20260506210450 | 14 | 218 | 3.2 | 3.2 | 0.00 | 0.30 | 0.30 | 99 | 1006.2 |
| 20260506205449 | 14 | 220 | 3.2 | 3.2 | 0.00 | 0.30 | 0.30 | 99 | 1006.2 |
| 20260506204449 | 14 | 203 | 4.8 | 4.8 | 0.00 | 0.30 | 0.30 | 99 | 1006.3 |
| 20260506203450 | 14 | 227 | 3.2 | 3.2 | 0.18 | 0.30 | 0.30 | 99 | 1006.3 |
| 20260506202450 | 14 | 206 | 1.6 | 4.8 | 0.00 | 0.28 | 0.28 | 99 | 1006.5 |
| 20260506201449 | 14 | 218 | 3.2 | 3.2 | 0.18 | 0.28 | 0.28 | 99 | 1006.6 |
| 20260506200448 | 15 | 240 | 1.6 | 1.6 | 0.13 | 0.25 | 0.25 | 99 | 1006.5 |
| 20260506195448 | 15 | 222 | 3.2 | 3.2 | 0.18 | 0.23 | 0.23 | 99 | 1006.6 |
| 20260506194447 | 15 | 228 | 3.2 | 3.2 | 0.00 | 0.20 | 0.20 | 99 | 1006.3 |
| 20260506193447 | 15 | 200 | 4.8 | 4.8 | 0.13 | 0.20 | 0.20 | 99 | 1006.4 |
| 20260506192447 | 15 | 184 | 4.8 | 4.8 | 0.18 | 0.18 | 0.18 | 98 | 1006.6 |
| 20260506191446 | 15 | 184 | 4.8 | 4.8 | 0.13 | 0.15 | 0.15 | 99 | 1006.7 |
| 20260506190445 | 15 | 217 | 3.2 | 3.2 | 0.13 | 0.15 | 0.15 | 98 | 1006.6 |
| 20260506185445 | 15 | 241 | 0.0 | 1.6 | 0.18 | 0.13 | 0.13 | 98 | 1006.7 |
| 20260506184445 | 15 | 224 | 1.6 | 1.6 | 0.13 | 0.10 | 0.10 | 98 | 1006.5 |
| 20260506183443 | 16 | 230 | 1.6 | 3.2 | 0.18 | 0.08 | 0.08 | 96 | 1006.8 |